createdAt,value
2023-01-01T00:00:26.679Z,96843.28
2023-01-01T00:02:55.059Z,96831.63
2023-01-01T00:05:23.369Z,96830.41
2023-01-01T00:07:51.689Z,96835.47
2023-01-01T00:10:32.143Z,96828.88
2023-01-01T00:13:01.972Z,96759.06
2023-01-01T00:15:30.251Z,96818.88
2023-01-01T00:17:59.051Z,96833.50
2023-01-01T00:20:33.139Z,96829.91
2023-01-01T00:23:03.388Z,96850.31
2023-01-01T00:25:32.692Z,96853.13
2023-01-01T00:28:03.229Z,96851.97
2023-01-01T00:30:31.466Z,96851.00
2023-01-01T00:32:59.763Z,96855.47
2023-01-01T00:35:28.199Z,96860.84
2023-01-01T00:37:57.107Z,96837.38
2023-01-01T00:40:25.401Z,96849.63
2023-01-01T00:42:53.690Z,96850.03
2023-01-01T00:45:23.453Z,96851.66
2023-01-01T00:47:53.017Z,96844.38
2023-01-01T00:50:22.273Z,96853.63
2023-01-01T00:52:51.325Z,96859.91
2023-01-01T00:55:19.841Z,96859.75
2023-01-01T00:57:48.150Z,96857.66
2023-01-01T01:00:17.393Z,96855.47
2023-01-01T01:02:47.064Z,96862.13
2023-01-01T01:05:15.322Z,96869.38
2023-01-01T01:07:43.872Z,96849.56
2023-01-01T01:10:13.118Z,96885.44
2023-01-01T01:12:41.406Z,96867.19
2023-01-01T01:15:11.349Z,96802.16
2023-01-01T01:17:39.599Z,96874.31
2023-01-01T01:20:10.299Z,96873.06
2023-01-01T01:22:38.754Z,96863.41
2023-01-01T01:25:08.990Z,96865.28
2023-01-01T01:27:37.268Z,96862.53
2023-01-01T01:30:06.448Z,96862.28
2023-01-01T01:32:34.683Z,96862.56
2023-01-01T01:35:02.988Z,96871.38
2023-01-01T01:37:32.670Z,96870.09
2023-01-01T01:40:00.919Z,96868.50
2023-01-01T01:42:29.323Z,96863.13
2023-01-01T01:44:59.814Z,96872.69
2023-01-01T01:47:32.796Z,96866.75
2023-01-01T01:50:07.943Z,96871.72
2023-01-01T01:52:40.919Z,96806.84
2023-01-01T01:55:11.711Z,96857.78
2023-01-01T01:57:41.627Z,96849.00
2023-01-01T02:00:11.900Z,96870.53
2023-01-01T02:02:46.929Z,96866.91
2023-01-01T02:05:15.620Z,96853.34
2023-01-01T02:07:46.299Z,96837.13
2023-01-01T02:10:14.668Z,96863.06
2023-01-01T02:12:42.974Z,96859.25
2023-01-01T02:15:11.761Z,96738.91
2023-01-01T02:17:48.916Z,96847.28
2023-01-01T02:20:31.197Z,96848.84
2023-01-01T02:23:26.164Z,96830.81
2023-01-01T02:26:19.426Z,96843.69
2023-01-01T02:28:58.415Z,96846.94
2023-01-01T02:31:31.473Z,96780.03
2023-01-01T02:34:03.622Z,96762.31
2023-01-01T02:36:34.558Z,96846.22
2023-01-01T02:39:06.436Z,96836.69
2023-01-01T02:41:37.845Z,96851.50
2023-01-01T02:44:08.117Z,96849.50
2023-01-01T02:46:37.459Z,96844.00
2023-01-01T02:49:10.258Z,96845.94
2023-01-01T02:51:56.000Z,96834.44
2023-01-01T02:54:33.566Z,96845.22
2023-01-01T02:57:08.216Z,96848.97
2023-01-01T03:00:03.479Z,96837.28
2023-01-01T03:02:46.724Z,96835.44
2023-01-01T03:05:26.937Z,96849.19
2023-01-01T03:08:05.884Z,96834.72
2023-01-01T03:10:42.832Z,96829.97
2023-01-01T03:13:18.871Z,96848.28
2023-01-01T03:15:56.821Z,96853.03
2023-01-01T03:18:29.395Z,96853.34
2023-01-01T03:21:00.910Z,96863.69
2023-01-01T03:23:35.957Z,96862.25
2023-01-01T03:26:10.623Z,96859.59
2023-01-01T03:28:45.029Z,96867.19
2023-01-01T03:31:20.285Z,96861.16
2023-01-01T03:33:53.637Z,96858.13
2023-01-01T03:36:28.909Z,96864.03
2023-01-01T03:39:02.093Z,96850.06
2023-01-01T03:41:36.835Z,96876.31
2023-01-01T03:44:09.614Z,96879.50
2023-01-01T03:46:39.699Z,96881.53
2023-01-01T03:49:11.527Z,96883.69
2023-01-01T03:51:59.405Z,96872.66
2023-01-01T03:54:38.388Z,96891.38
2023-01-01T03:57:12.070Z,96893.44
2023-01-01T03:59:45.455Z,96894.41
2023-01-01T04:02:20.365Z,96896.81
2023-01-01T04:04:50.221Z,96891.78
2023-01-01T04:07:18.736Z,96899.34
2023-01-01T04:09:52.043Z,96894.38
2023-01-01T04:12:21.242Z,96902.03
2023-01-01T04:14:49.575Z,96902.38
2023-01-01T04:17:19.240Z,96895.06
2023-01-01T04:19:51.604Z,96902.44
2023-01-01T04:22:23.739Z,96905.13
2023-01-01T04:24:52.126Z,96901.38
2023-01-01T04:27:20.369Z,96902.91
2023-01-01T04:29:48.720Z,96900.78
2023-01-01T04:32:18.433Z,96904.53
2023-01-01T04:34:46.691Z,96903.63
2023-01-01T04:37:15.081Z,96908.94
2023-01-01T04:39:43.326Z,96888.16
2023-01-01T04:42:11.714Z,96886.41
2023-01-01T04:44:40.001Z,96910.06
2023-01-01T04:47:08.593Z,96906.09
2023-01-01T04:49:38.404Z,96913.19
2023-01-01T04:52:06.979Z,96850.69
2023-01-01T04:54:35.222Z,96904.44
2023-01-01T04:57:03.552Z,96904.44
2023-01-01T04:59:31.911Z,96901.81
2023-01-01T05:02:00.587Z,96902.63
2023-01-01T05:04:29.193Z,96908.56
2023-01-01T05:06:58.820Z,96910.13
2023-01-01T05:09:27.129Z,96912.50
2023-01-01T05:11:56.840Z,96918.31
2023-01-01T05:14:25.101Z,96903.00
2023-01-01T05:16:54.589Z,96912.50
2023-01-01T05:19:23.245Z,96917.81
2023-01-01T05:21:51.512Z,96913.47
2023-01-01T05:24:21.241Z,96909.63
2023-01-01T05:26:49.523Z,96925.19
2023-01-01T05:29:17.825Z,96860.63
2023-01-01T05:31:46.848Z,96919.13
2023-01-01T05:34:15.632Z,96885.81
2023-01-01T05:36:43.954Z,96906.44
2023-01-01T05:39:13.895Z,96912.66
2023-01-01T05:41:43.813Z,96905.03
2023-01-01T05:44:12.279Z,96899.78
2023-01-01T05:46:40.568Z,96894.72
2023-01-01T05:49:11.735Z,96906.75
2023-01-01T05:54:07.506Z,96919.22
2023-01-01T05:56:35.773Z,96902.97
2023-01-01T05:59:05.606Z,96916.09
2023-01-01T06:01:37.598Z,96936.63
2023-01-01T06:04:11.684Z,96932.06
2023-01-01T06:06:40.145Z,96927.16
2023-01-01T06:09:08.541Z,96938.75
2023-01-01T06:11:36.881Z,96935.78
2023-01-01T06:14:06.633Z,96933.34
2023-01-01T06:16:34.995Z,96928.41
2023-01-01T06:19:05.302Z,96928.28
2023-01-01T06:21:33.671Z,96926.59
2023-01-01T06:24:02.247Z,96929.91
2023-01-01T06:26:32.416Z,96932.47
2023-01-01T06:29:01.889Z,96937.44
2023-01-01T06:31:36.845Z,96938.47
2023-01-01T06:34:11.374Z,96937.22
2023-01-01T06:36:39.741Z,96947.47
2023-01-01T06:39:08.942Z,96951.97
2023-01-01T06:41:37.233Z,96896.53
2023-01-01T06:44:05.800Z,96946.41
2023-01-01T06:46:36.975Z,96936.22
2023-01-01T06:49:07.299Z,96954.50
2023-01-01T06:51:39.022Z,96932.84
2023-01-01T06:54:08.538Z,96947.94
2023-01-01T06:56:37.719Z,96850.97
2023-01-01T06:59:06.354Z,96937.06
2023-01-01T07:01:43.877Z,96959.06
2023-01-01T07:04:15.783Z,96960.50
2023-01-01T07:06:44.323Z,96924.38
2023-01-01T07:09:12.563Z,96956.69
2023-01-01T07:11:43.751Z,96953.66
2023-01-01T07:14:12.015Z,96958.31
2023-01-01T07:16:41.933Z,96954.00
2023-01-01T07:19:10.317Z,96948.75
2023-01-01T07:21:44.716Z,96936.22
2023-01-01T07:24:14.958Z,96956.31
2023-01-01T07:26:43.189Z,96944.53
2023-01-01T07:29:13.030Z,96939.97
2023-01-01T07:31:45.064Z,96940.63
2023-01-01T07:34:16.792Z,96959.88
2023-01-01T07:36:45.086Z,96956.94
2023-01-01T07:39:14.385Z,96969.28
2023-01-01T07:41:43.200Z,96962.66
2023-01-01T07:44:11.459Z,96963.22
2023-01-01T07:46:39.892Z,96961.59
2023-01-01T07:49:09.533Z,96957.31
2023-01-01T07:51:38.145Z,96956.72
2023-01-01T07:54:07.641Z,96958.28
2023-01-01T07:56:36.625Z,96955.03
2023-01-01T07:59:05.866Z,96950.13
2023-01-01T08:01:37.257Z,96951.81
2023-01-01T08:04:06.440Z,96877.75
2023-01-01T08:06:36.176Z,96954.34
2023-01-01T08:09:04.875Z,96947.22
2023-01-01T08:11:33.118Z,96944.00
2023-01-01T08:14:01.594Z,96949.66
2023-01-01T08:16:29.975Z,96943.47
2023-01-01T08:18:58.474Z,96944.72
2023-01-01T08:21:26.979Z,96941.03
2023-01-01T08:23:56.732Z,96942.25
2023-01-01T08:26:30.615Z,96931.47
2023-01-01T08:28:59.064Z,96917.22
2023-01-01T08:31:27.475Z,96940.09
2023-01-01T08:33:55.816Z,96950.25
2023-01-01T08:36:24.334Z,96951.75
2023-01-01T08:38:52.665Z,96943.81
2023-01-01T08:41:22.439Z,96959.56
2023-01-01T08:43:50.870Z,96955.13
2023-01-01T08:46:19.332Z,96951.63
2023-01-01T08:48:47.664Z,96944.94
2023-01-01T08:51:16.000Z,96940.22
2023-01-01T08:53:50.404Z,96938.47
2023-01-01T08:56:19.459Z,96938.03
2023-01-01T08:58:50.039Z,96931.44
2023-01-01T09:01:22.205Z,96929.63
2023-01-01T09:03:50.808Z,96913.91
2023-01-01T09:06:19.147Z,96913.44
2023-01-01T09:08:47.491Z,96899.03
2023-01-01T09:11:24.902Z,96897.59
2023-01-01T09:13:54.922Z,96900.34
2023-01-01T09:16:24.254Z,96907.81
2023-01-01T09:18:52.568Z,96883.34
2023-01-01T09:21:21.010Z,96887.16
2023-01-01T09:23:49.477Z,96872.53
2023-01-01T09:26:17.738Z,96877.13
2023-01-01T09:28:46.054Z,96874.06
2023-01-01T09:31:15.801Z,96865.13
2023-01-01T09:33:44.168Z,96871.13
2023-01-01T09:36:17.156Z,96872.00
2023-01-01T09:38:50.032Z,96869.06
2023-01-01T09:41:27.098Z,96867.69
2023-01-01T09:44:02.800Z,96856.69
2023-01-01T09:46:33.401Z,96866.84
2023-01-01T09:49:06.640Z,96829.25
2023-01-01T09:51:43.260Z,96848.81
2023-01-01T09:54:28.305Z,96844.78
2023-01-01T09:56:58.885Z,96846.41
2023-01-01T09:59:27.379Z,96837.56
2023-01-01T10:02:01.791Z,96825.50
2023-01-01T10:04:42.907Z,96827.97
2023-01-01T10:07:17.474Z,96816.13
2023-01-01T10:09:58.500Z,96807.63
2023-01-01T10:12:37.978Z,96801.06
2023-01-01T10:15:15.589Z,96801.06
2023-01-01T10:17:48.184Z,96781.31
2023-01-01T10:20:23.413Z,96789.84
2023-01-01T10:22:57.114Z,96788.50
2023-01-01T10:25:28.580Z,96732.25
2023-01-01T10:28:01.304Z,96793.19
2023-01-01T10:30:31.194Z,96737.28
2023-01-01T10:33:01.347Z,96743.06
2023-01-01T10:35:36.585Z,96779.84
2023-01-01T10:38:06.412Z,96780.94
2023-01-01T10:40:35.317Z,96777.28
2023-01-01T10:43:04.518Z,96742.50
2023-01-01T10:45:35.502Z,96763.38
2023-01-01T10:48:22.612Z,96756.72
2023-01-01T10:50:53.362Z,96755.06
2023-01-01T10:53:33.677Z,96745.00
2023-01-01T10:56:05.499Z,96735.47
2023-01-01T10:58:41.113Z,96723.44
2023-01-01T11:01:12.142Z,96734.00
2023-01-01T11:03:54.940Z,96730.84
2023-01-01T11:06:25.724Z,96733.09
2023-01-01T11:08:56.970Z,96729.59
2023-01-01T11:11:29.317Z,96721.84
2023-01-01T11:14:00.360Z,96710.38
2023-01-01T11:16:30.097Z,96719.13
2023-01-01T11:19:07.867Z,96719.19
2023-01-01T11:21:37.695Z,96719.41
2023-01-01T11:24:18.444Z,96716.94
2023-01-01T11:26:53.963Z,96713.41
2023-01-01T11:29:30.270Z,96673.38
2023-01-01T11:32:00.960Z,96707.34
2023-01-01T11:34:38.543Z,96545.59
2023-01-01T11:37:24.963Z,96663.94
2023-01-01T11:39:55.343Z,96697.84
2023-01-01T11:42:26.293Z,96693.25
2023-01-01T11:44:57.138Z,96688.06
2023-01-01T11:47:30.407Z,96675.69
2023-01-01T11:50:03.879Z,96677.47
2023-01-01T11:52:38.665Z,96665.50
2023-01-01T11:55:19.956Z,96664.09
2023-01-01T11:57:59.279Z,96660.47
2023-01-01T12:00:30.353Z,96668.25
2023-01-01T12:03:02.341Z,96616.72
2023-01-01T12:05:45.397Z,96669.34
2023-01-01T12:08:22.807Z,96667.50
2023-01-01T12:10:57.588Z,96621.38
2023-01-01T12:13:31.221Z,96653.31
2023-01-01T12:16:08.749Z,96639.84
2023-01-01T12:18:45.047Z,96620.03
2023-01-01T12:21:19.356Z,96621.31
2023-01-01T12:23:47.795Z,96650.19
2023-01-01T12:26:23.710Z,96628.41
2023-01-01T12:29:24.284Z,96646.22
2023-01-01T12:32:04.825Z,96641.81
2023-01-01T12:34:39.471Z,96638.75
2023-01-01T12:37:15.897Z,96635.94
2023-01-01T12:40:30.579Z,96637.09
2023-01-01T12:43:04.307Z,96621.88
2023-01-01T12:46:21.833Z,96633.59
2023-01-01T12:49:02.432Z,96612.94
2023-01-01T12:51:37.114Z,96597.97
2023-01-01T12:54:43.381Z,96556.03
2023-01-01T12:57:19.524Z,96629.78
2023-01-01T12:59:51.956Z,96632.16
2023-01-01T13:02:23.556Z,96628.13
2023-01-01T13:04:56.522Z,96607.38
2023-01-01T13:07:30.485Z,96615.69
2023-01-01T13:10:14.226Z,96617.84
2023-01-01T13:12:42.855Z,96604.47
2023-01-01T13:15:49.667Z,96620.22
2023-01-01T13:18:23.822Z,96617.13
2023-01-01T13:21:04.019Z,96617.63
2023-01-01T13:24:04.093Z,96632.97
2023-01-01T13:26:35.736Z,96575.06
2023-01-01T13:29:37.075Z,96632.81
2023-01-01T13:32:07.818Z,96622.50
2023-01-01T13:34:59.740Z,96566.28
2023-01-01T13:37:42.140Z,96635.69
2023-01-01T13:40:53.113Z,96638.34
2023-01-01T13:43:35.123Z,96637.50
2023-01-01T13:46:14.547Z,96637.84
2023-01-01T13:49:17.134Z,96605.84
2023-01-01T13:52:19.493Z,96649.00
2023-01-01T13:55:36.208Z,96650.91
2023-01-01T13:58:31.777Z,96591.13
2023-01-01T14:01:19.872Z,96652.69
2023-01-01T14:03:51.509Z,96659.22
2023-01-01T14:06:30.371Z,96608.69
2023-01-01T14:09:08.106Z,96666.34
2023-01-01T14:11:36.561Z,96653.69
2023-01-01T14:14:04.821Z,96656.22
2023-01-01T14:16:34.574Z,96596.25
2023-01-01T14:19:03.793Z,96666.47
2023-01-01T14:21:35.584Z,96539.72
2023-01-01T14:24:07.723Z,96667.16
2023-01-01T14:26:40.494Z,96641.78
2023-01-01T14:29:11.058Z,96666.16
2023-01-01T14:31:45.182Z,96667.81
2023-01-01T14:34:17.977Z,96675.50
2023-01-01T14:36:53.805Z,96675.94
2023-01-01T14:39:27.953Z,96678.84
2023-01-01T14:41:59.326Z,96679.72
2023-01-01T14:44:35.899Z,96653.19
2023-01-01T14:47:06.875Z,96684.47
2023-01-01T14:49:38.815Z,96672.84
2023-01-01T14:52:10.334Z,96676.94
2023-01-01T14:54:40.532Z,96671.03
2023-01-01T14:57:13.840Z,96661.22
2023-01-01T14:59:48.534Z,96684.97
2023-01-01T15:02:22.466Z,96683.28
2023-01-01T15:04:51.185Z,96663.34
2023-01-01T15:07:23.110Z,96704.59
2023-01-01T15:09:52.078Z,96694.06
2023-01-01T15:12:21.113Z,96693.63
2023-01-01T15:14:50.600Z,96649.44
2023-01-01T15:17:22.217Z,96681.34
2023-01-01T15:20:03.139Z,96682.81
2023-01-01T15:22:35.273Z,96682.63
2023-01-01T15:25:04.314Z,96695.16
2023-01-01T15:27:34.239Z,96680.44
2023-01-01T15:30:09.845Z,96701.78
2023-01-01T15:32:43.171Z,96631.78
2023-01-01T15:35:27.840Z,96692.09
2023-01-01T15:38:02.291Z,96660.78
2023-01-01T15:40:37.038Z,96700.25
2023-01-01T15:43:22.799Z,96704.41
2023-01-01T15:45:56.787Z,96707.34
2023-01-01T15:48:37.657Z,96703.13
2023-01-01T15:51:15.651Z,96705.38
2023-01-01T15:53:50.737Z,96699.78
2023-01-01T15:56:20.022Z,96694.28
2023-01-01T15:58:55.573Z,96666.16
2023-01-01T16:01:26.433Z,96687.28
2023-01-01T16:04:03.409Z,96681.59
2023-01-01T16:06:32.081Z,96673.34
2023-01-01T16:09:00.342Z,96712.50
2023-01-01T16:11:28.722Z,96724.00
2023-01-01T16:13:57.047Z,96719.28
2023-01-01T16:16:28.718Z,96728.13
2023-01-01T16:18:59.444Z,96726.66
2023-01-01T16:21:29.367Z,96727.22
2023-01-01T16:23:57.832Z,96726.31
2023-01-01T16:26:26.518Z,96647.53
2023-01-01T16:28:54.737Z,96728.28
2023-01-01T16:31:28.163Z,96693.16
2023-01-01T16:33:59.620Z,96733.59
2023-01-01T16:36:29.391Z,96735.22
2023-01-01T16:38:58.175Z,96732.25
2023-01-01T16:41:28.826Z,96746.00
2023-01-01T16:43:57.507Z,96740.50
2023-01-01T16:46:26.743Z,96744.19
2023-01-01T16:48:55.190Z,96740.59
2023-01-01T16:51:28.958Z,96742.78
2023-01-01T16:53:57.506Z,96755.56
2023-01-01T16:56:26.012Z,96755.41
2023-01-01T16:59:03.282Z,96761.38
2023-01-01T17:01:32.132Z,96763.38
2023-01-01T17:04:00.907Z,96754.00
2023-01-01T17:06:30.644Z,96755.94
2023-01-01T17:09:00.747Z,96766.63
2023-01-01T17:11:29.141Z,96771.34
2023-01-01T17:13:59.771Z,96776.63
2023-01-01T17:16:34.673Z,96771.94
2023-01-01T17:19:15.493Z,96769.72
2023-01-01T17:21:47.079Z,96777.50
2023-01-01T17:24:15.658Z,96713.75
2023-01-01T17:26:44.011Z,96775.09
2023-01-01T17:29:12.325Z,96773.84
2023-01-01T17:31:40.621Z,96786.78
2023-01-01T17:34:13.096Z,96788.38
2023-01-01T17:36:42.712Z,96794.28
2023-01-01T17:39:13.397Z,96741.63
2023-01-01T17:41:41.867Z,96796.03
2023-01-01T17:44:11.285Z,96792.28
2023-01-01T17:46:40.081Z,96750.84
2023-01-01T17:49:09.244Z,96808.06
2023-01-01T17:51:37.658Z,96804.56
2023-01-01T17:54:07.446Z,96805.56
2023-01-01T17:56:37.154Z,96805.00
2023-01-01T17:59:05.417Z,96798.53
2023-01-01T18:01:35.634Z,96803.50
2023-01-01T18:04:05.965Z,96730.47
2023-01-01T18:06:41.076Z,96797.41
2023-01-01T18:09:13.388Z,96784.44
2023-01-01T18:11:43.570Z,96812.66
2023-01-01T18:14:13.182Z,96813.50
2023-01-01T18:16:45.147Z,96801.53
2023-01-01T18:19:13.442Z,96817.78
2023-01-01T18:21:43.185Z,96770.47
2023-01-01T18:24:14.296Z,96820.03
2023-01-01T18:26:44.651Z,96820.47
2023-01-01T18:29:12.916Z,96822.00
2023-01-01T18:31:41.487Z,96777.31
2023-01-01T18:34:11.080Z,96823.97
2023-01-01T18:36:39.696Z,96820.19
2023-01-01T18:39:16.503Z,96807.13
2023-01-01T18:42:12.316Z,96822.97
2023-01-01T18:44:41.470Z,96819.84
2023-01-01T18:47:15.634Z,96803.84
2023-01-01T18:49:49.128Z,96808.31
2023-01-01T18:52:23.141Z,96813.28
2023-01-01T18:55:03.559Z,96823.94
2023-01-01T18:57:33.345Z,96819.38
2023-01-01T19:00:15.163Z,96702.09
2023-01-01T19:02:47.419Z,96817.78
2023-01-01T19:05:19.576Z,96813.28
2023-01-01T19:07:53.094Z,96803.75
2023-01-01T19:10:21.523Z,96719.84
2023-01-01T19:12:55.065Z,96816.41
2023-01-01T19:15:24.001Z,96726.63
2023-01-01T19:17:55.246Z,96782.53
2023-01-01T19:20:24.958Z,96767.75
2023-01-01T19:22:53.325Z,96772.63
2023-01-01T19:25:38.076Z,96813.66
2023-01-01T19:28:29.676Z,96811.34
2023-01-01T19:30:58.438Z,96806.81
2023-01-01T19:33:27.224Z,96809.94
2023-01-01T19:35:55.477Z,96805.03
2023-01-01T19:38:23.836Z,96753.16
2023-01-01T19:40:52.305Z,96819.84
2023-01-01T19:43:21.965Z,96815.00
2023-01-01T19:45:50.304Z,96794.63
2023-01-01T19:48:18.647Z,96740.16
2023-01-01T19:50:47.758Z,96817.97
2023-01-01T19:53:16.370Z,96810.63
2023-01-01T19:55:44.796Z,96820.44
2023-01-01T19:58:13.106Z,96806.88
2023-01-01T20:00:42.913Z,96803.53
2023-01-01T20:03:43.363Z,96816.03
2023-01-01T20:05:59.626Z,96820.31
2023-01-01T20:08:28.696Z,96823.50
2023-01-01T20:10:56.951Z,96817.66
2023-01-01T20:13:25.320Z,96820.84
2023-01-01T20:15:55.073Z,96823.91
2023-01-01T20:18:23.408Z,96800.56
2023-01-01T20:21:08.819Z,96772.28
2023-01-01T20:23:37.028Z,96821.56
2023-01-01T20:26:05.797Z,96825.25
2023-01-01T20:28:51.832Z,96821.63
2023-01-01T20:31:21.949Z,96778.63
2023-01-01T20:33:50.225Z,96810.13
2023-01-01T20:36:35.819Z,96770.94
2023-01-01T20:39:04.266Z,96830.81
2023-01-01T20:41:32.432Z,96811.84
2023-01-01T20:44:01.828Z,96836.72
2023-01-01T20:46:31.607Z,96835.41
2023-01-01T20:49:00.336Z,96835.22
2023-01-01T20:51:28.729Z,96816.09
2023-01-01T20:53:57.343Z,96823.00
2023-01-01T20:56:25.604Z,96779.69
2023-01-01T20:58:59.591Z,96789.22
2023-01-01T21:01:32.188Z,96826.44
2023-01-01T21:04:00.651Z,96840.38
2023-01-01T21:06:28.871Z,96842.41
2023-01-01T21:08:57.279Z,96844.44
2023-01-01T21:11:25.592Z,96833.53
2023-01-01T21:13:54.038Z,96780.75
2023-01-01T21:16:28.996Z,96841.88
2023-01-01T21:18:59.402Z,96838.81
2023-01-01T21:21:31.930Z,96842.66
2023-01-01T21:24:04.445Z,96845.94
2023-01-01T21:26:37.591Z,96844.09
2023-01-01T21:29:13.705Z,96842.09
2023-01-01T21:31:43.046Z,96844.13
2023-01-01T21:34:27.744Z,96847.53
2023-01-01T21:37:02.977Z,96848.69
2023-01-01T21:39:32.301Z,96845.25
2023-01-01T21:42:08.684Z,96844.19
2023-01-01T21:44:36.938Z,96842.78
2023-01-01T21:47:17.915Z,96833.72
2023-01-01T21:49:47.538Z,96837.09
2023-01-01T21:52:20.047Z,96847.47
2023-01-01T21:54:49.217Z,96835.09
2023-01-01T21:57:20.327Z,96834.69
2023-01-01T21:59:48.837Z,96836.72
2023-01-01T22:02:39.319Z,96837.75
2023-01-01T22:05:30.255Z,96836.72
2023-01-01T22:07:59.455Z,96779.09
2023-01-01T22:10:36.270Z,96841.16
2023-01-01T22:13:13.867Z,96833.88
2023-01-01T22:15:43.148Z,96835.13
2023-01-01T22:18:27.104Z,96836.31
2023-01-01T22:20:58.169Z,96792.84
2023-01-01T22:23:36.012Z,96833.09
2023-01-01T22:26:13.297Z,96820.94
2023-01-01T22:28:44.421Z,96824.25
2023-01-01T22:31:18.615Z,96829.06
2023-01-01T22:33:51.977Z,96828.66
2023-01-01T22:36:25.610Z,96827.47
2023-01-01T22:38:56.989Z,96832.13
2023-01-01T22:41:25.440Z,96829.91
2023-01-01T22:43:57.974Z,96829.91
2023-01-01T22:46:29.876Z,96826.28
2023-01-01T22:49:01.366Z,96837.59
2023-01-01T22:51:43.560Z,96831.09
2023-01-01T22:54:11.871Z,96841.47
2023-01-01T22:56:40.190Z,96823.22
2023-01-01T22:59:08.485Z,96828.69
2023-01-01T23:01:36.867Z,96825.03
2023-01-01T23:04:05.500Z,96820.97
2023-01-01T23:06:35.256Z,96823.81
2023-01-01T23:09:03.670Z,96819.78
2023-01-01T23:11:31.945Z,96772.03
2023-01-01T23:14:17.826Z,96816.75
2023-01-01T23:16:46.064Z,96814.91
2023-01-01T23:19:14.412Z,96802.41
2023-01-01T23:21:45.603Z,96770.03
2023-01-01T23:24:18.414Z,96817.16
2023-01-01T23:26:47.970Z,96817.75
2023-01-01T23:29:18.139Z,96816.53
2023-01-01T23:31:48.332Z,96814.53
2023-01-01T23:34:17.001Z,96816.38
2023-01-01T23:36:46.875Z,96812.31
2023-01-01T23:39:15.086Z,96811.69
2023-01-01T23:41:43.450Z,96812.28
2023-01-01T23:44:11.653Z,96815.38
2023-01-01T23:46:40.541Z,96812.50
2023-01-01T23:49:09.315Z,96814.53
2023-01-01T23:51:39.177Z,96809.66
2023-01-01T23:54:09.116Z,96803.22
2023-01-01T23:56:37.407Z,96742.31
2023-01-01T23:59:05.745Z,96811.50
